Park City, UT

3:25 AM MDT on September 01, 2015 (GMT -0600)
Silver Summit | | Change Station
CLOSE
Current Station
Personal Weather Station
Location: Park City, UT
Elevation: 6568 ft
Nearby Weather Stations

Elev 6568 ft 40.71 °N, 111.49 °W | Updated 3 minutes ago

Partly Cloudy
Partly Cloudy
62.1 °F
Feels Like 62.1 °F
N
5.4
Wind Variable Wind from North
Gusts 6.0 mph

Today
High -- | Low -- °F
--% Chance of Precip.
Yesterday
High -- | Low -- °F
Precip. -- in
6:52 AM 7:58 PM
Waning Gibbous, 90% visible
Pressure 30.11 in
Visibility 10.0 miles
Clouds Scattered Clouds 11000 ft
Dew Point 46 °F
Humidity 55%
Rainfall 0.00 in
Snow Depth Not available.
UV 0 out of 12
Pollen 9.10 out of 12
Air Quality Not available.
Flu Activity Not available.
METAR K36U 010915Z AUTO 00000KT 10SM SCT110 12/07 A3011 RMK AO2
Pressure 30.11 in
Visibility 10.0 miles
Clouds Scattered Clouds 11000 ft
Dew Point 46 °F
Humidity 55%
Rainfall 0.00 in
Snow Depth Not available.
UV 0 out of 12
Pollen 9.10 out of 12
Air Quality Not available.
Flu Activity Not available.
METAR K36U 010915Z AUTO 00000KT 10SM SCT110 12/07 A3011 RMK AO2

10-Day Weather Forecast

×

Almanac

Astronomy

Sep. 01, 2015 Rise Set
Actual Time
Civil Twilight
Nautical Twilight
Astronomical Twilight
Moon
Length of Visible Light
Length of Day
Tomorrow will be .
, % of the Moon is Illuminated

Today's Extremes

State Highs State Lows

Community

WunderPhotos

Upload Photos

1,851,490 photos uploaded!

WunderBlogs® & News

Nearby

Air Quality

  Air Quality AQ Index Pollutant
Not available.

Snow Depth

Station Depth Elevation

Earthquake Activity

City Distance Mag. Time & Date
Minimum magnitude displayed is 2.5.

Coastal Water Temperatures

Place Temperature

Stations

Nearby Weather Stations

Station Location Temp. Windchill Dew Point Humidity Wind Precip. Elev Updated Type